Time;durP1;ratioP1;P1;durP2;ratioP2;P2;SDS_P1;SDS_P2;PMS_P1;PMS_P2;Temp;Humidity;BMP_temperature;BMP_pressure;BME280_temperature;BME280_humidity;BME280_pressure;Samples;Min_cycle;Max_cycle;Signal;HPM_P1;HPM_P2
2022/12/27 00:01:52;;;;;;;8.80;2.17;;;4.70;99.90;;;;;;5072553;28;20115;-67
2022/12/27 00:04:17;;;;;;;8.32;2.28;;;4.60;99.90;;;;;;5071917;28;20519;-67
2022/12/27 00:06:43;;;;;;;6.07;2.08;;;4.70;99.90;;;;;;5070415;28;20162;-67
2022/12/27 00:09:08;;;;;;;5.43;2.20;;;4.60;99.90;;;;;;5041707;28;20049;-67
2022/12/27 00:11:34;;;;;;;11.02;2.53;;;4.60;99.90;;;;;;5052674;28;20028;-67
2022/12/27 00:14:02;;;;;;;4.10;1.63;;;4.70;99.90;;;;;;5064742;28;20606;-67
2022/12/27 00:16:28;;;;;;;3.85;2.10;;;4.70;99.90;;;;;;5072473;28;20077;-67
2022/12/27 00:18:54;;;;;;;8.45;2.30;;;4.70;99.90;;;;;;5070853;28;20074;-67
2022/12/27 00:21:20;;;;;;;5.20;2.30;;;4.70;99.90;;;;;;5071999;28;20117;-69
2022/12/27 00:23:49;;;;;;;7.40;2.00;;;4.70;99.90;;;;;;5071177;28;20194;-69
2022/12/27 00:26:18;;;;;;;6.07;1.90;;;4.80;99.90;;;;;;5070767;28;20040;-69
2022/12/27 00:28:44;;;;;;;4.47;1.98;;;4.70;99.90;;;;;;5070539;28;20044;-69
2022/12/27 00:31:11;;;;;;;5.32;2.50;;;4.60;99.90;;;;;;5071304;28;20378;-69
2022/12/27 00:33:38;;;;;;;9.15;3.38;;;4.60;99.90;;;;;;5071977;28;20036;-68
2022/12/27 00:36:06;;;;;;;7.95;2.33;;;4.70;99.90;;;;;;5071453;28;20119;-68
2022/12/27 00:38:32;;;;;;;11.20;2.38;;;4.60;99.90;;;;;;5071508;28;20086;-68
2022/12/27 00:40:59;;;;;;;7.53;1.95;;;4.70;99.90;;;;;;5071844;28;20032;-68
2022/12/27 00:43:24;;;;;;;7.20;2.50;;;4.60;99.90;;;;;;5071459;28;20063;-68
2022/12/27 00:45:50;;;;;;;9.30;3.17;;;4.70;99.90;;;;;;5071092;28;20429;-68
2022/12/27 00:48:15;;;;;;;6.15;2.35;;;4.70;99.90;;;;;;5071819;28;20128;-68
2022/12/27 00:50:42;;;;;;;4.28;2.13;;;4.60;99.90;;;;;;5071505;28;20525;-69
2022/12/27 00:53:09;;;;;;;5.35;2.42;;;4.60;99.90;;;;;;5071759;28;20032;-69
2022/12/27 00:55:34;;;;;;;5.05;1.95;;;4.50;99.90;;;;;;5070734;28;20212;-69
2022/12/27 00:58:00;;;;;;;6.43;2.08;;;4.70;99.90;;;;;;5071361;28;20045;-69
2022/12/27 01:00:26;;;;;;;10.40;2.40;;;4.60;99.90;;;;;;5071021;28;20052;-69
2022/12/27 01:02:51;;;;;;;5.15;2.45;;;4.60;99.90;;;;;;5071583;28;20552;-69
2022/12/27 01:05:17;;;;;;;4.97;2.40;;;4.60;99.90;;;;;;5070580;28;20090;-69
2022/12/27 01:07:42;;;;;;;5.78;2.78;;;4.60;99.90;;;;;;5070987;28;20043;-69
2022/12/27 01:10:08;;;;;;;8.63;2.75;;;4.60;99.90;;;;;;5071222;28;20488;-69
2022/12/27 01:12:34;;;;;;;8.05;2.75;;;4.50;99.90;;;;;;5071143;28;20043;-69
2022/12/27 01:15:00;;;;;;;8.48;3.35;;;4.50;99.90;;;;;;5070156;28;20074;-69
2022/12/27 01:17:28;;;;;;;8.93;2.70;;;4.50;99.90;;;;;;5071384;28;20044;-69
2022/12/27 01:19:54;;;;;;;6.55;2.05;;;4.50;99.90;;;;;;5069605;28;20501;-69
2022/12/27 01:22:19;;;;;;;5.80;2.45;;;4.40;99.90;;;;;;5071047;28;20036;-69
2022/12/27 01:24:45;;;;;;;4.35;2.45;;;4.50;99.90;;;;;;5070657;28;20041;-69
2022/12/27 01:27:10;;;;;;;9.30;2.83;;;4.40;99.90;;;;;;5071074;28;20036;-67
2022/12/27 01:29:36;;;;;;;7.85;2.75;;;4.40;99.90;;;;;;5070747;28;20058;-66
2022/12/27 01:32:01;;;;;;;12.55;2.80;;;4.40;99.90;;;;;;5069517;28;20485;-66
2022/12/27 01:34:27;;;;;;;4.40;2.58;;;4.40;99.90;;;;;;5070340;28;20231;-66
2022/12/27 01:36:52;;;;;;;6.28;2.60;;;4.40;99.90;;;;;;5071040;28;20090;-66
2022/12/27 01:39:18;;;;;;;5.63;2.22;;;4.40;99.90;;;;;;5071113;28;20560;-66
2022/12/27 01:44:38;;;;;;;9.65;2.70;;;4.50;99.90;;;;;;5068946;28;20084;-66
2022/12/27 01:47:35;;;;;;;5.18;2.25;;;4.50;99.90;;;;;;5070772;28;20082;-66
2022/12/27 01:50:23;;;;;;;6.22;2.60;;;4.40;99.90;;;;;;5067183;28;20072;-66
2022/12/27 01:52:52;;;;;;;5.35;2.35;;;4.50;99.90;;;;;;5065399;28;20037;-66
2022/12/27 01:55:24;;;;;;;9.68;3.53;;;4.40;99.90;;;;;;5054517;28;20055;-66
2022/12/27 01:57:52;;;;;;;8.97;2.83;;;4.40;99.90;;;;;;5055935;28;20731;-66
2022/12/27 02:00:18;;;;;;;3.60;2.45;;;4.50;99.90;;;;;;5065177;28;20032;-66
2022/12/27 02:02:44;;;;;;;10.27;2.33;;;4.40;99.90;;;;;;5062252;28;20052;-66
2022/12/27 02:05:13;;;;;;;5.88;2.67;;;4.40;99.90;;;;;;5069661;28;20075;-66
2022/12/27 02:07:54;;;;;;;13.52;3.17;;;4.40;99.90;;;;;;5070650;28;20036;-66
2022/12/27 02:10:20;;;;;;;10.68;2.72;;;4.50;99.90;;;;;;5069144;28;20044;-66
2022/12/27 02:12:45;;;;;;;6.80;2.42;;;4.50;99.90;;;;;;5070612;28;20105;-66
2022/12/27 02:15:11;;;;;;;7.65;3.03;;;4.50;99.90;;;;;;5068668;28;20677;-66
2022/12/27 02:17:37;;;;;;;9.25;2.95;;;4.50;99.90;;;;;;5070214;28;20481;-66
2022/12/27 02:20:13;;;;;;;6.40;3.03;;;4.50;99.90;;;;;;5070616;28;20044;-66
2022/12/27 02:26:17;;;;;;;5.63;2.60;;;4.50;99.90;;;;;;5069835;28;20052;-66
2022/12/27 02:29:17;;;;;;;9.07;2.60;;;4.50;99.90;;;;;;5070432;28;20084;-66
2022/12/27 02:32:03;;;;;;;5.93;2.65;;;4.40;99.90;;;;;;5068939;28;20041;-66
2022/12/27 02:34:34;;;;;;;7.28;2.72;;;4.50;99.90;;;;;;5068270;28;20041;-69
2022/12/27 02:37:06;;;;;;;14.20;3.13;;;4.50;99.90;;;;;;5069250;28;20106;-67
2022/12/27 02:39:36;;;;;;;5.18;2.67;;;4.40;99.90;;;;;;5070289;28;20044;-67
2022/12/27 02:53:27;;;;;;;7.50;2.90;;;4.50;99.90;;;;;;5071160;28;20040;-67
2022/12/27 02:59:22;;;;;;;7.28;2.35;;;4.50;99.90;;;;;;5064925;28;20049;-69
2022/12/27 03:05:09;;;;;;;7.22;2.63;;;4.60;99.90;;;;;;5072653;28;20489;-67
2022/12/27 03:08:02;;;;;;;9.75;2.65;;;4.60;99.90;;;;;;5073780;28;20033;-67
2022/12/27 03:16:55;;;;;;;7.47;2.17;;;4.60;99.90;;;;;;5073431;28;20041;-67
2022/12/27 03:33:32;;;;;;;12.07;2.70;;;4.50;99.90;;;;;;5072977;28;20048;-67
2022/12/27 03:39:16;;;;;;;7.05;2.22;;;4.60;99.90;;;;;;5071648;28;20048;-67
2022/12/27 03:44:35;;;;;;;9.23;2.47;;;4.60;99.90;;;;;;5051013;28;20060;-67
2022/12/27 03:47:34;;;;;;;4.82;2.08;;;4.60;99.90;;;;;;5052971;28;20044;-67
2022/12/27 03:50:02;;;;;;;11.35;2.35;;;4.60;99.90;;;;;;5051406;28;20048;-67
2022/12/27 03:52:36;;;;;;;12.82;3.25;;;4.60;99.90;;;;;;5052799;28;20409;-67
2022/12/27 03:55:03;;;;;;;7.88;2.42;;;4.60;99.90;;;;;;5034441;28;20469;-67
2022/12/27 03:57:30;;;;;;;9.95;2.58;;;4.70;99.90;;;;;;5051359;28;20044;-67
2022/12/27 03:59:55;;;;;;;6.72;2.63;;;4.70;99.90;;;;;;5051489;28;20111;-67
2022/12/27 04:02:21;;;;;;;5.97;2.78;;;4.70;99.90;;;;;;5052743;28;20088;-67
2022/12/27 04:04:47;;;;;;;4.13;1.63;;;4.70;99.90;;;;;;5049313;28;20040;-67
2022/12/27 04:07:14;;;;;;;9.20;2.40;;;4.70;99.90;;;;;;5052595;28;20045;-67
2022/12/27 04:34:41;;;;;;;4.97;2.15;;;4.80;99.90;;;;;;5051244;28;20045;-66
2022/12/27 04:37:08;;;;;;;6.07;2.75;;;4.90;99.90;;;;;;5052087;28;20041;-67
2022/12/27 04:39:34;;;;;;;6.30;1.92;;;4.90;99.90;;;;;;5051851;28;20048;-67
2022/12/27 04:56:00;;;;;;;6.22;1.90;;;4.90;99.90;;;;;;5050877;28;20143;-67
2022/12/27 04:58:26;;;;;;;6.13;2.53;;;4.80;99.90;;;;;;5051697;28;20056;-67
2022/12/27 05:03:39;;;;;;;5.30;2.15;;;4.80;99.90;;;;;;5051720;28;20084;-67
2022/12/27 05:06:05;;;;;;;9.57;2.65;;;4.90;99.90;;;;;;5049582;28;20053;-67
2022/12/27 05:14:00;;;;;;;10.52;2.63;;;4.80;99.90;;;;;;5050411;28;20751;-67
2022/12/27 05:16:31;;;;;;;9.23;1.85;;;4.90;99.90;;;;;;5050686;28;20131;-67
2022/12/27 05:18:57;;;;;;;7.68;2.42;;;4.80;99.90;;;;;;5051033;28;20512;-67
2022/12/27 05:21:23;;;;;;;6.93;2.20;;;4.80;99.90;;;;;;5049513;28;20045;-67
2022/12/27 05:26:33;;;;;;;3.67;2.05;;;4.90;99.90;;;;;;5051013;28;20041;-67
2022/12/27 05:29:00;;;;;;;9.63;2.78;;;4.90;99.90;;;;;;5050892;28;20379;-67
2022/12/27 05:31:28;;;;;;;4.93;2.97;;;4.80;99.90;;;;;;5049367;28;20425;-67
2022/12/27 05:33:54;;;;;;;11.32;3.25;;;4.80;99.90;;;;;;5050226;28;20041;-67
2022/12/27 05:36:20;;;;;;;4.07;2.40;;;4.80;99.90;;;;;;5049585;28;20052;-67
2022/12/27 05:38:46;;;;;;;13.85;3.20;;;4.80;99.90;;;;;;5033169;28;20187;-67
2022/12/27 05:41:12;;;;;;;8.48;2.50;;;4.80;99.90;;;;;;5050981;28;20524;-67
2022/12/27 05:43:38;;;;;;;5.20;2.33;;;4.80;99.90;;;;;;5041431;28;20051;-67
2022/12/27 05:46:15;;;;;;;7.47;2.45;;;4.80;99.90;;;;;;5054854;28;20089;-67
2022/12/27 05:48:41;;;;;;;5.95;2.90;;;4.90;99.90;;;;;;5059808;28;20044;-67
2022/12/27 05:51:09;;;;;;;10.95;2.50;;;4.80;99.90;;;;;;5063402;28;20539;-67
2022/12/27 05:53:35;;;;;;;5.10;2.45;;;4.80;99.90;;;;;;5069902;28;20041;-67
2022/12/27 05:56:01;;;;;;;5.32;2.22;;;4.80;99.90;;;;;;5060462;28;20127;-67
2022/12/27 05:58:27;;;;;;;6.50;2.25;;;4.70;99.90;;;;;;5069032;28;20044;-67
2022/12/27 06:00:53;;;;;;;7.90;2.70;;;4.80;99.90;;;;;;5069616;28;20123;-67
2022/12/27 06:03:19;;;;;;;5.20;1.98;;;4.80;99.90;;;;;;5070575;28;20115;-67
2022/12/27 06:05:44;;;;;;;7.88;2.50;;;4.70;99.90;;;;;;5063399;28;20032;-67
2022/12/27 06:08:10;;;;;;;9.15;2.13;;;4.70;99.90;;;;;;5061996;28;20086;-67
2022/12/27 06:10:36;;;;;;;2.65;1.60;;;4.80;99.90;;;;;;5070443;28;20509;-67
2022/12/27 06:13:03;;;;;;;2.67;1.98;;;4.80;99.90;;;;;;5070460;28;20064;-67
2022/12/27 06:15:29;;;;;;;6.28;2.10;;;4.90;99.90;;;;;;5069958;28;20123;-67
2022/12/27 06:17:55;;;;;;;7.63;2.80;;;4.90;99.90;;;;;;5070603;28;20107;-67
2022/12/27 06:20:20;;;;;;;6.38;2.67;;;4.90;99.90;;;;;;5070617;28;20044;-67
2022/12/27 06:22:46;;;;;;;10.82;3.40;;;4.80;99.90;;;;;;5070572;28;20045;-67
2022/12/27 06:25:13;;;;;;;10.35;2.50;;;4.90;99.90;;;;;;5068718;28;20036;-67
2022/12/27 06:27:39;;;;;;;4.68;2.15;;;4.80;99.90;;;;;;5071147;28;20103;-67
2022/12/27 06:30:06;;;;;;;8.90;2.10;;;4.90;99.90;;;;;;5074395;28;20036;-67
2022/12/27 06:32:33;;;;;;;8.48;2.30;;;4.90;99.90;;;;;;5074433;28;20086;-67
2022/12/27 06:34:58;;;;;;;10.18;2.30;;;5.00;99.90;;;;;;5071988;28;20094;-67
2022/12/27 06:37:24;;;;;;;4.00;2.38;;;5.00;99.90;;;;;;5074185;28;20044;-67
2022/12/27 06:39:50;;;;;;;7.05;2.03;;;5.00;99.90;;;;;;5073851;28;20044;-67
2022/12/27 06:42:15;;;;;;;11.73;2.58;;;5.00;99.90;;;;;;5074157;28;20683;-67
2022/12/27 06:44:41;;;;;;;8.05;3.08;;;4.90;99.90;;;;;;5073276;28;20094;-67
2022/12/27 06:47:06;;;;;;;10.63;3.25;;;4.90;99.90;;;;;;5072715;28;20629;-67
2022/12/27 06:49:32;;;;;;;11.48;3.75;;;4.90;99.90;;;;;;5073750;28;20401;-67
2022/12/27 06:51:58;;;;;;;14.18;2.97;;;5.00;99.90;;;;;;5073873;28;20037;-67
2022/12/27 06:54:23;;;;;;;6.85;2.92;;;4.80;99.90;;;;;;5073169;28;20455;-67
2022/12/27 06:56:49;;;;;;;7.38;3.13;;;4.90;99.90;;;;;;5074063;28;20032;-67
2022/12/27 06:59:14;;;;;;;6.60;3.30;;;4.80;99.90;;;;;;5073678;28;20040;-67
2022/12/27 07:01:41;;;;;;;10.20;3.15;;;4.80;99.90;;;;;;5072341;28;20404;-67
2022/12/27 07:04:06;;;;;;;6.50;2.33;;;4.80;99.90;;;;;;5072844;28;20055;-67
2022/12/27 07:06:35;;;;;;;7.45;2.58;;;4.80;99.90;;;;;;5073674;28;20067;-67
2022/12/27 07:09:01;;;;;;;5.55;2.60;;;4.80;99.90;;;;;;5072350;28;20037;-67
2022/12/27 07:11:26;;;;;;;8.23;3.08;;;4.80;99.90;;;;;;5071967;28;20063;-67
2022/12/27 07:13:54;;;;;;;8.20;3.15;;;4.80;99.90;;;;;;5072956;28;20041;-67
2022/12/27 07:16:23;;;;;;;11.00;3.72;;;4.80;99.90;;;;;;5072108;28;20536;-67
2022/12/27 07:18:49;;;;;;;16.13;3.97;;;4.80;99.90;;;;;;5073557;28;20036;-68
2022/12/27 07:21:18;;;;;;;8.90;3.28;;;4.80;99.90;;;;;;5055264;28;20033;-67
2022/12/27 07:23:44;;;;;;;6.72;3.03;;;4.80;99.90;;;;;;5072893;28;20040;-67
2022/12/27 07:26:13;;;;;;;7.28;3.30;;;4.80;99.90;;;;;;5071750;28;20084;-67
2022/12/27 07:28:39;;;;;;;8.38;3.47;;;4.70;99.90;;;;;;5073407;28;20430;-67
2022/12/27 07:31:10;;;;;;;7.25;3.10;;;4.60;99.90;;;;;;5054934;28;20435;-67
2022/12/27 07:33:37;;;;;;;7.50;3.55;;;4.70;99.90;;;;;;5073133;28;20082;-67
2022/12/27 07:36:06;;;;;;;8.13;2.90;;;4.70;99.90;;;;;;5072401;28;20047;-67
2022/12/27 07:38:31;;;;;;;11.00;3.40;;;4.70;99.90;;;;;;5072751;28;20044;-67
2022/12/27 07:40:58;;;;;;;9.85;3.15;;;4.70;99.90;;;;;;5073034;28;20493;-67
2022/12/27 07:43:25;;;;;;;10.18;3.28;;;4.70;99.90;;;;;;5067267;28;20115;-67
2022/12/27 07:45:50;;;;;;;6.03;2.80;;;4.70;99.90;;;;;;5061861;28;20660;-67
2022/12/27 07:48:16;;;;;;;10.02;2.65;;;4.70;99.90;;;;;;5065642;28;20048;-67
2022/12/27 07:50:41;;;;;;;7.68;2.58;;;4.70;99.90;;;;;;5063993;28;20053;-67
2022/12/27 07:53:07;;;;;;;6.78;2.55;;;4.70;99.90;;;;;;5054778;28;20044;-66
2022/12/27 07:55:32;;;;;;;9.50;2.90;;;4.70;99.90;;;;;;5057863;28;20033;-67
2022/12/27 07:57:58;;;;;;;10.40;3.22;;;4.60;99.90;;;;;;5067106;28;20035;-67
2022/12/27 08:00:23;;;;;;;9.05;3.17;;;4.70;99.90;;;;;;5060237;28;20037;-67
2022/12/27 08:02:49;;;;;;;8.20;2.80;;;4.70;99.90;;;;;;5066738;28;20075;-67
2022/12/27 08:05:14;;;;;;;8.68;3.20;;;4.70;99.90;;;;;;5071623;28;20414;-67
2022/12/27 08:07:40;;;;;;;4.45;2.83;;;4.70;99.90;;;;;;5072249;28;20044;-67
2022/12/27 08:10:06;;;;;;;9.13;3.25;;;4.60;99.90;;;;;;5066835;28;20045;-67
2022/12/27 08:12:32;;;;;;;11.95;3.30;;;4.60;99.90;;;;;;5061560;28;20547;-67
2022/12/27 08:14:57;;;;;;;7.70;2.88;;;4.70;99.90;;;;;;5071842;28;20052;-66
2022/12/27 08:17:26;;;;;;;8.50;3.53;;;4.70;99.90;;;;;;5072313;28;20041;-67
2022/12/27 08:19:53;;;;;;;12.65;3.97;;;4.80;99.90;;;;;;5072194;28;20072;-67
2022/12/27 08:22:19;;;;;;;10.57;3.42;;;4.80;99.90;;;;;;5070814;28;20044;-67
2022/12/27 08:24:45;;;;;;;8.18;3.42;;;4.80;99.90;;;;;;5068357;28;20041;-67
2022/12/27 08:27:11;;;;;;;9.43;3.40;;;4.80;99.90;;;;;;5054236;28;20045;-68
2022/12/27 08:29:37;;;;;;;10.25;4.25;;;4.70;99.90;;;;;;5050821;28;20049;-68
2022/12/27 08:32:04;;;;;;;5.65;3.45;;;4.60;99.90;;;;;;5049589;28;20072;-68
2022/12/27 08:34:29;;;;;;;10.48;3.42;;;4.50;99.90;;;;;;5048824;28;20669;-67
2022/12/27 08:36:55;;;;;;;12.82;3.60;;;4.50;99.90;;;;;;5050121;28;20072;-67
2022/12/27 08:39:20;;;;;;;12.50;3.50;;;4.50;99.90;;;;;;5051089;28;20179;-67
2022/12/27 08:41:46;;;;;;;8.32;3.33;;;4.60;99.90;;;;;;5050863;28;20044;-72
2022/12/27 08:44:12;;;;;;;9.20;2.95;;;4.50;99.90;;;;;;5054035;28;20044;-69
2022/12/27 08:46:37;;;;;;;9.68;3.08;;;4.60;99.90;;;;;;5057988;28;20045;-69
2022/12/27 08:49:03;;;;;;;7.88;3.40;;;4.60;99.90;;;;;;5063412;28;20060;-69
2022/12/27 08:51:29;;;;;;;5.97;3.65;;;4.60;99.90;;;;;;5041482;28;20119;-69
2022/12/27 08:53:55;;;;;;;14.90;4.65;;;4.60;99.90;;;;;;5059392;28;20119;-69
2022/12/27 08:56:20;;;;;;;10.13;3.28;;;4.60;99.90;;;;;;5051453;28;20032;-69
2022/12/27 08:58:49;;;;;;;10.93;4.20;;;4.60;99.90;;;;;;5059905;28;20141;-69
2022/12/27 09:01:15;;;;;;;15.65;3.70;;;4.70;99.90;;;;;;5060675;28;20036;-69
2022/12/27 09:03:41;;;;;;;9.05;3.53;;;4.70;99.90;;;;;;5055361;28;20694;-69
2022/12/27 09:06:16;;;;;;;8.90;3.58;;;4.60;99.90;;;;;;5068735;28;20048;-70
2022/12/27 09:08:44;;;;;;;7.93;3.72;;;4.60;99.90;;;;;;5052904;28;20055;-70
2022/12/27 09:11:18;;;;;;;7.85;3.30;;;4.70;99.90;;;;;;5068660;28;20702;-69
2022/12/27 09:13:45;;;;;;;16.00;3.58;;;4.70;99.90;;;;;;5068748;28;20032;-70
2022/12/27 09:16:13;;;;;;;4.80;3.15;;;4.70;99.90;;;;;;5052508;28;20051;-70
2022/12/27 09:18:40;;;;;;;9.10;3.45;;;4.80;99.90;;;;;;5068988;28;20070;-69
2022/12/27 09:21:08;;;;;;;6.18;3.95;;;4.80;99.90;;;;;;5070684;28;20050;-69
2022/12/27 09:23:34;;;;;;;12.90;3.88;;;4.80;99.90;;;;;;5071178;28;20032;-70
2022/12/27 09:26:12;;;;;;;7.57;3.08;;;4.80;99.90;;;;;;5069939;28;20409;-70
2022/12/27 09:28:39;;;;;;;15.95;4.00;;;4.80;99.90;;;;;;5058730;28;20045;-70
2022/12/27 09:31:06;;;;;;;8.65;3.40;;;4.90;99.90;;;;;;5060302;28;20060;-70
2022/12/27 09:33:32;;;;;;;9.77;3.10;;;4.80;99.90;;;;;;5060838;28;20048;-70
2022/12/27 09:36:09;;;;;;;15.57;3.95;;;4.90;99.90;;;;;;5062665;28;20111;-70
2022/12/27 09:38:35;;;;;;;11.98;3.95;;;4.90;99.90;;;;;;5070118;28;20119;-69
2022/12/27 09:41:04;;;;;;;7.57;3.72;;;4.90;99.90;;;;;;5063049;28;20079;-70
2022/12/27 09:43:45;;;;;;;9.13;3.47;;;4.90;99.90;;;;;;5059792;28;20405;-68
2022/12/27 09:46:20;;;;;;;6.70;3.45;;;5.00;99.90;;;;;;5065522;28;20102;-70
2022/12/27 09:48:47;;;;;;;11.20;3.80;;;5.00;99.90;;;;;;5069167;28;20056;-70
2022/12/27 09:51:22;;;;;;;8.15;3.97;;;5.00;99.90;;;;;;5070256;28;20128;-68
2022/12/27 09:54:06;;;;;;;8.48;3.83;;;5.10;99.90;;;;;;5069372;28;20079;-68
2022/12/27 09:56:33;;;;;;;6.40;3.45;;;5.00;99.90;;;;;;5070220;28;20105;-68
2022/12/27 09:59:26;;;;;;;8.30;3.72;;;5.10;99.90;;;;;;5068806;28;20036;-69
2022/12/27 10:01:51;;;;;;;11.80;3.40;;;5.10;99.90;;;;;;5071073;28;20041;-69
2022/12/27 10:04:18;;;;;;;15.27;4.00;;;5.00;99.90;;;;;;5073701;28;20400;-68
2022/12/27 10:06:49;;;;;;;11.10;3.55;;;5.10;99.90;;;;;;5072980;28;20051;-68
2022/12/27 10:09:32;;;;;;;9.45;3.20;;;5.10;99.90;;;;;;5073359;28;20045;-68
2022/12/27 10:12:30;;;;;;;7.90;2.63;;;5.10;99.90;;;;;;5072694;28;20122;-67
2022/12/27 10:15:27;;;;;;;7.22;2.92;;;5.30;99.90;;;;;;5011617;28;20092;-70
2022/12/27 10:18:30;;;;;;;11.60;3.65;;;5.30;99.90;;;;;;5046339;28;20041;-70
2022/12/27 10:21:03;;;;;;;13.18;3.55;;;5.30;99.90;;;;;;5064587;28;20080;-70
2022/12/27 10:23:32;;;;;;;6.00;3.58;;;5.30;99.90;;;;;;5069667;28;20033;-70
2022/12/27 10:26:04;;;;;;;9.25;4.18;;;5.40;99.90;;;;;;5060350;28;20413;-70
2022/12/27 10:28:38;;;;;;;15.70;3.70;;;5.40;99.90;;;;;;5070126;28;20047;-70
2022/12/27 10:31:04;;;;;;;9.55;3.63;;;5.40;99.90;;;;;;5073803;28;20051;-70
2022/12/27 10:33:34;;;;;;;8.25;3.20;;;5.50;99.90;;;;;;5065069;28;20143;-70
2022/12/27 10:36:05;;;;;;;4.97;3.03;;;5.50;99.90;;;;;;5068026;28;20039;-70
2022/12/27 10:38:33;;;;;;;8.70;2.72;;;5.50;99.90;;;;;;5053867;28;20119;-69
2022/12/27 10:41:24;;;;;;;6.55;3.30;;;5.60;99.90;;;;;;5053843;28;20112;-72
2022/12/27 10:43:52;;;;;;;7.55;3.13;;;5.60;99.90;;;;;;5047350;28;20041;-69
2022/12/27 10:46:29;;;;;;;10.57;3.67;;;5.70;99.90;;;;;;5053250;28;20059;-68
2022/12/27 10:49:05;;;;;;;8.05;3.13;;;5.80;99.90;;;;;;5053405;28;20116;-68
2022/12/27 10:51:51;;;;;;;8.60;3.28;;;5.80;99.90;;;;;;5053405;28;20660;-71
2022/12/27 10:54:25;;;;;;;9.50;3.58;;;5.80;99.90;;;;;;5052688;28;20405;-69
2022/12/27 10:56:52;;;;;;;9.43;3.08;;;5.80;99.90;;;;;;5053690;28;20040;-70
2022/12/27 10:59:27;;;;;;;7.75;3.17;;;5.90;99.90;;;;;;5053363;28;20041;-68
2022/12/27 11:01:59;;;;;;;11.57;4.07;;;5.90;99.90;;;;;;5051691;28;20107;-68
2022/12/27 11:04:26;;;;;;;9.63;2.80;;;5.90;99.90;;;;;;5051314;28;20657;-68
2022/12/27 11:07:03;;;;;;;9.98;2.70;;;5.90;99.90;;;;;;5052613;28;20037;-68
2022/12/27 11:09:35;;;;;;;13.18;3.15;;;5.90;99.90;;;;;;5053302;28;20045;-68
2022/12/27 11:12:11;;;;;;;7.65;3.17;;;5.90;99.90;;;;;;5052789;28;20049;-69
2022/12/27 11:14:37;;;;;;;5.03;2.53;;;5.90;99.90;;;;;;5050602;28;20099;-68
2022/12/27 11:17:09;;;;;;;8.50;2.63;;;5.90;99.90;;;;;;5051777;28;20041;-68
2022/12/27 11:19:37;;;;;;;10.40;2.70;;;6.00;99.90;;;;;;5035597;28;20485;-68
2022/12/27 11:22:07;;;;;;;5.53;3.05;;;6.00;99.90;;;;;;5052764;28;20052;-68
2022/12/27 11:24:33;;;;;;;13.30;3.15;;;6.00;99.90;;;;;;5052281;28;20091;-68
2022/12/27 11:26:59;;;;;;;9.63;3.83;;;6.00;99.90;;;;;;5052993;28;20045;-68
2022/12/27 11:29:27;;;;;;;8.73;2.63;;;6.00;99.90;;;;;;5052730;28;20077;-69
2022/12/27 11:31:53;;;;;;;7.80;2.70;;;6.00;99.90;;;;;;5051143;28;20039;-68
2022/12/27 11:34:36;;;;;;;10.68;2.72;;;6.10;99.90;;;;;;5052216;28;20120;-68
2022/12/27 11:37:05;;;;;;;;;;;6.10;99.90;;;;;;5051822;28;20069;-69
2022/12/27 11:39:36;;;;;;;12.30;2.95;;;6.10;99.90;;;;;;5052955;28;19970;-68
2022/12/27 11:42:05;;;;;;;5.18;2.55;;;6.10;99.90;;;;;;5053302;28;20051;-69
2022/12/27 11:44:36;;;;;;;12.40;3.55;;;6.10;99.90;;;;;;5052371;28;20048;-69
2022/12/27 11:47:34;;;;;;;11.02;3.55;;;6.10;99.90;;;;;;5051694;28;20080;-69
2022/12/27 11:50:39;;;;;;;8.82;2.92;;;6.10;99.90;;;;;;5048196;28;20067;-69
2022/12/27 11:53:39;;;;;;;11.68;2.78;;;6.10;99.90;;;;;;5052781;28;20068;-69
2022/12/27 11:56:21;;;;;;;8.45;2.88;;;6.10;99.90;;;;;;5052276;28;20036;-69
2022/12/27 11:59:24;;;;;;;10.93;3.60;;;6.10;99.90;;;;;;5052738;28;20448;-71
2022/12/27 12:02:03;;;;;;;10.70;3.00;;;6.10;99.90;;;;;;5051650;28;20463;-71
2022/12/27 12:04:56;;;;;;;12.48;3.67;;;6.10;99.90;;;;;;5052199;28;20040;-69
2022/12/27 12:07:40;;;;;;;;;;;6.20;99.90;;;;;;5051736;28;20049;-69
2022/12/27 12:10:33;;;;;;;6.05;3.92;;;6.20;99.90;;;;;;5052509;28;19921;-69
2022/12/27 12:13:07;;;;;;;;;;;6.20;99.90;;;;;;5053096;28;20076;-68
2022/12/27 12:16:10;;;;;;;8.10;3.17;;;6.20;99.90;;;;;;5050270;28;19923;-68
2022/12/27 12:18:54;;;;;;;11.88;3.17;;;6.20;99.90;;;;;;5055780;28;20131;-68
2022/12/27 12:21:57;;;;;;;10.20;3.45;;;6.10;99.90;;;;;;5060303;28;20072;-69
2022/12/27 12:24:35;;;;;;;9.00;3.60;;;6.10;99.90;;;;;;5056371;28;20036;-69
2022/12/27 12:27:23;;;;;;;16.33;4.35;;;6.10;99.90;;;;;;5059635;28;20422;-68
2022/12/27 12:30:14;;;;;;;9.93;3.80;;;6.10;99.90;;;;;;5052078;28;20116;-68
2022/12/27 12:33:01;;;;;;;10.98;3.88;;;6.10;99.90;;;;;;5071011;28;20037;-69
2022/12/27 12:36:00;;;;;;;10.45;3.80;;;6.10;99.90;;;;;;5071342;28;20582;-68
2022/12/27 12:38:44;;;;;;;8.98;3.67;;;6.10;99.90;;;;;;5071734;28;20036;-69
2022/12/27 12:41:34;;;;;;;10.23;4.22;;;6.10;99.90;;;;;;5070603;28;20040;-72
2022/12/27 12:44:09;;;;;;;9.77;4.20;;;6.10;99.90;;;;;;5069898;28;20405;-69
2022/12/27 12:46:42;;;;;;;15.43;4.45;;;6.10;99.90;;;;;;5071998;28;20044;-69
2022/12/27 12:49:44;;;;;;;10.65;4.28;;;6.40;99.90;;;;;;5071649;28;20048;-69
2022/12/27 12:52:34;;;;;;;11.50;4.18;;;6.30;99.90;;;;;;5071958;28;20070;-69
2022/12/27 12:55:27;;;;;;;7.13;4.25;;;6.20;99.90;;;;;;5070810;28;20532;-69
2022/12/27 12:57:56;;;;;;;10.15;5.13;;;6.20;99.90;;;;;;5071759;28;20119;-69
2022/12/27 13:00:24;;;;;;;7.82;4.38;;;6.20;99.90;;;;;;5071246;28;20054;-69
2022/12/27 13:03:17;;;;;;;11.70;4.85;;;6.20;99.90;;;;;;5071697;28;20036;-69
2022/12/27 13:05:49;;;;;;;;;;;6.20;99.90;;;;;;5070976;28;20036;-69
2022/12/27 13:08:43;;;;;;;9.55;5.38;;;6.30;99.90;;;;;;5071498;28;19917;-69
2022/12/27 13:11:20;;;;;;;9.27;5.57;;;6.30;99.90;;;;;;5071186;28;20502;-69
2022/12/27 13:14:15;;;;;;;10.00;6.53;;;6.30;99.90;;;;;;5070733;28;20048;-69
2022/12/27 13:17:04;;;;;;;10.90;6.00;;;6.30;99.90;;;;;;5071446;28;20036;-69
2022/12/27 13:20:00;;;;;;;13.45;6.03;;;6.30;99.90;;;;;;5071478;28;20033;-69
2022/12/27 13:22:56;;;;;;;11.25;6.45;;;6.30;99.90;;;;;;5071121;28;20037;-69
2022/12/27 13:25:58;;;;;;;16.35;7.55;;;6.30;99.90;;;;;;5070355;28;20048;-69
2022/12/27 13:28:48;;;;;;;14.98;8.63;;;6.30;99.90;;;;;;5069778;28;20047;-69
2022/12/27 13:31:37;;;;;;;13.45;6.63;;;6.30;99.90;;;;;;5071109;28;20443;-69
2022/12/27 13:34:14;;;;;;;11.07;6.35;;;6.30;99.90;;;;;;5070473;28;20063;-69
2022/12/27 13:37:01;;;;;;;15.05;7.43;;;6.30;99.90;;;;;;5064763;28;20159;-69
2022/12/27 13:39:33;;;;;;;22.20;8.02;;;6.30;99.90;;;;;;5060946;28;20036;-69
2022/12/27 13:42:33;;;;;;;21.17;8.27;;;6.30;99.90;;;;;;5066808;28;20036;-69
2022/12/27 13:45:17;;;;;;;14.93;7.75;;;6.30;99.90;;;;;;5070419;28;20044;-69
2022/12/27 13:48:12;;;;;;;17.38;9.45;;;6.20;99.90;;;;;;5070726;28;20497;-69
2022/12/27 13:51:00;;;;;;;16.13;9.35;;;6.30;99.90;;;;;;5070797;28;20036;-69
2022/12/27 13:53:50;;;;;;;18.10;7.97;;;6.30;99.90;;;;;;5070535;28;20489;-69
2022/12/27 13:56:41;;;;;;;12.02;7.97;;;6.30;99.90;;;;;;5071021;28;20036;-68
2022/12/27 13:59:51;;;;;;;18.25;7.80;;;6.30;99.90;;;;;;5067328;28;20529;-69
2022/12/27 14:02:31;;;;;;;15.75;10.82;;;6.30;99.90;;;;;;5027466;28;20067;-69
2022/12/27 14:05:08;;;;;;;25.55;13.43;;;6.30;99.90;;;;;;5053510;28;20033;-69
2022/12/27 14:08:02;;;;;;;17.42;10.43;;;6.30;99.90;;;;;;5055476;28;20044;-69
2022/12/27 14:10:46;;;;;;;21.75;12.20;;;6.30;99.90;;;;;;5049501;28;20512;-69
2022/12/27 14:13:33;;;;;;;21.80;12.07;;;6.30;99.90;;;;;;5058329;28;20037;-69
2022/12/27 14:16:11;;;;;;;33.78;16.77;;;6.30;99.90;;;;;;5056256;28;20045;-69
2022/12/27 14:18:36;;;;;;;26.05;15.65;;;6.30;99.90;;;;;;5064155;28;20462;-69
2022/12/27 14:21:07;;;;;;;23.30;15.05;;;6.20;99.90;;;;;;5061981;28;20121;-69
2022/12/27 14:23:46;;;;;;;25.45;14.02;;;6.30;99.90;;;;;;5068846;28;20077;-70
2022/12/27 14:26:27;;;;;;;31.30;17.45;;;6.30;99.90;;;;;;5060684;28;20040;-71
2022/12/27 14:29:26;;;;;;;19.13;12.05;;;6.40;99.90;;;;;;5069232;28;20424;-68
2022/12/27 14:32:46;;;;;;;22.75;12.00;;;6.40;99.90;;;;;;5069399;28;20044;-69
2022/12/27 14:35:29;;;;;;;19.98;12.45;;;6.30;99.90;;;;;;5026590;28;20041;-69
2022/12/27 14:38:21;;;;;;;24.20;11.98;;;6.30;99.90;;;;;;5064027;28;20123;-68
2022/12/27 14:41:35;;;;;;;10.73;6.28;;;6.30;99.90;;;;;;5068940;28;20059;-67
2022/12/27 14:44:38;;;;;;;20.00;10.15;;;6.60;99.90;;;;;;5069935;28;20819;-70
2022/12/27 14:47:32;;;;;;;23.23;13.00;;;6.40;99.90;;;;;;5070494;28;20059;-69
2022/12/27 14:50:29;;;;;;;23.30;12.73;;;6.30;99.90;;;;;;5057361;28;20083;-70
2022/12/27 14:53:32;;;;;;;20.67;12.82;;;6.30;99.90;;;;;;5074072;28;20040;-69
2022/12/27 14:56:26;;;;;;;22.58;12.85;;;6.30;99.90;;;;;;5073110;28;20036;-69
2022/12/27 14:58:57;;;;;;;18.70;12.90;;;6.20;99.90;;;;;;5046858;28;20125;-69
2022/12/27 15:01:29;;;;;;;21.98;11.00;;;6.20;99.90;;;;;;5047262;28;20371;-70
2022/12/27 15:04:25;;;;;;;21.77;10.38;;;6.10;99.90;;;;;;5053491;28;20106;-69
2022/12/27 15:06:51;;;;;;;23.17;12.15;;;6.20;99.90;;;;;;5058064;28;20040;-69